Portada
METAR-TAF:

METAR-TAF

Aeroports :

Chugiak, Alaska, Estats Units d'Amèrica

latitud: 61-25N, longitud: 149-31W, altitud: 29 m

Observació

L'informe es va fer fa 37 minuts, a les 02:56 UTC
Vent 6 kt del Sud/Sud-Oest
Temperatura 0°C
Humitat 86%
Pressió 992 hPa
Visibilitat: 16.1 km
Cel clar

METAR: PABV 080256Z AUTO 21006KT 10SM CLR 00/M02 A2929 RMK AO2 SLP924 T00001017 56024 FZRANO

Hora: 18:33 (03:33 UTC)


TAF: manca

Observacions i pronòstics meteorològics de més de 4000 aeroports (METAR i TAF).

Les estacions disponibles són els punts grocs i vermells al mapa.

Posi el ratolí al punt desitjat per veure el nom de l'estació.

Feu clic per veure les observacions i els pronòstics meteorològics.

Per canviar el mapa: feu clic els botons verds amb una creu de color negre per apropar; al botó verd amb un guió per allunyar la imatge; o en les fletxes verdes per a mapes adjacents.


METAR-TAF: